createdAt,value
2022-09-28T00:00:51.798Z,2.00
2022-09-28T00:03:18.300Z,2.88
2022-09-28T00:05:44.792Z,1.73
2022-09-28T00:08:11.222Z,3.78
2022-09-28T00:10:37.793Z,1.73
2022-09-28T00:13:04.504Z,2.40
2022-09-28T00:15:30.964Z,2.72
2022-09-28T00:17:57.476Z,2.08
2022-09-28T00:20:24.014Z,2.40
2022-09-28T00:22:50.494Z,1.17
2022-09-28T00:25:17.088Z,2.22
2022-09-28T00:27:43.742Z,2.75
2022-09-28T00:30:10.515Z,2.75
2022-09-28T00:32:37.004Z,1.80
2022-09-28T00:35:03.537Z,1.80
2022-09-28T00:37:30.120Z,2.90
2022-09-28T00:39:56.971Z,2.80
2022-09-28T00:42:25.473Z,2.13
2022-09-28T00:44:56.699Z,1.45
2022-09-28T00:47:46.615Z,3.30
2022-09-28T00:50:45.957Z,3.55
2022-09-28T00:53:23.610Z,1.30
2022-09-28T00:56:03.695Z,2.15
2022-09-28T00:58:33.584Z,2.25
2022-09-28T01:01:00.392Z,4.68
2022-09-28T01:03:28.682Z,2.95
2022-09-28T01:05:57.774Z,2.28
2022-09-28T01:08:27.730Z,1.88
2022-09-28T01:10:54.241Z,2.70
2022-09-28T01:13:22.884Z,2.00
2022-09-28T01:16:26.891Z,1.55
2022-09-28T01:19:32.158Z,1.73
2022-09-28T01:22:23.441Z,2.05
2022-09-28T01:25:01.253Z,2.22
2022-09-28T01:27:38.051Z,2.63
2022-09-28T01:30:16.009Z,2.40
2022-09-28T01:33:06.950Z,3.10
2022-09-28T01:35:39.991Z,1.90
2022-09-28T01:38:13.238Z,1.92
2022-09-28T01:40:41.139Z,2.33
2022-09-28T01:43:13.953Z,1.83
2022-09-28T01:45:45.688Z,2.97
2022-09-28T01:48:17.629Z,1.13
2022-09-28T01:50:47.216Z,3.70
2022-09-28T01:53:22.772Z,2.55
2022-09-28T01:55:54.886Z,0.95
2022-09-28T01:58:21.304Z,4.03
2022-09-28T02:00:53.785Z,1.20
2022-09-28T02:03:48.742Z,1.48
2022-09-28T02:06:27.887Z,2.13
2022-09-28T02:09:05.338Z,1.67
2022-09-28T02:11:37.268Z,1.63
2022-09-28T02:14:06.872Z,1.58
2022-09-28T02:16:54.396Z,2.47
2022-09-28T02:19:23.617Z,2.08
2022-09-28T02:21:59.217Z,1.67
2022-09-28T02:24:39.038Z,2.80
2022-09-28T02:27:29.857Z,1.38
2022-09-28T02:29:56.356Z,2.97
2022-09-28T02:32:24.416Z,2.63
2022-09-28T02:34:50.889Z,2.67
2022-09-28T02:37:17.532Z,1.20
2022-09-28T02:39:43.994Z,1.58
2022-09-28T02:42:29.300Z,2.22
2022-09-28T02:44:57.584Z,1.10
2022-09-28T02:47:35.735Z,1.70
2022-09-28T02:50:45.147Z,1.80
2022-09-28T02:53:26.264Z,1.33
2022-09-28T02:56:27.984Z,1.10
2022-09-28T02:59:21.676Z,1.23
2022-09-28T03:02:08.508Z,2.40
2022-09-28T03:04:44.690Z,1.92
2022-09-28T03:07:22.892Z,1.38
2022-09-28T03:09:58.841Z,1.23
2022-09-28T03:12:29.298Z,1.55
2022-09-28T03:15:11.173Z,2.30
2022-09-28T03:17:37.733Z,0.82
2022-09-28T03:20:05.325Z,2.70
2022-09-28T03:22:31.821Z,4.50
2022-09-28T03:24:58.341Z,1.05
2022-09-28T03:27:24.837Z,1.38
2022-09-28T03:29:51.309Z,3.03
2022-09-28T03:32:17.791Z,1.70
2022-09-28T03:34:44.275Z,1.33
2022-09-28T03:37:11.121Z,0.88
2022-09-28T03:39:37.564Z,1.20
2022-09-28T03:42:04.068Z,1.80
2022-09-28T03:44:30.605Z,1.33
2022-09-28T03:46:57.051Z,2.00
2022-09-28T03:49:23.583Z,6.88
2022-09-28T03:51:50.056Z,2.53
2022-09-28T03:54:16.537Z,2.55
2022-09-28T03:56:42.969Z,1.27
2022-09-28T03:59:09.472Z,2.25
2022-09-28T04:01:35.989Z,1.17
2022-09-28T04:04:02.608Z,1.80
2022-09-28T04:06:29.098Z,1.98
2022-09-28T04:08:56.004Z,1.23
2022-09-28T04:11:22.492Z,2.00
2022-09-28T04:13:51.984Z,1.85
2022-09-28T04:16:19.028Z,1.95
2022-09-28T04:18:45.591Z,0.70
2022-09-28T04:21:13.299Z,1.52
2022-09-28T04:23:40.294Z,0.85
2022-09-28T04:26:09.329Z,1.08
2022-09-28T04:28:54.449Z,1.95
2022-09-28T04:31:22.948Z,1.40
2022-09-28T04:33:49.476Z,1.20
2022-09-28T04:36:16.032Z,1.33
2022-09-28T04:38:52.806Z,2.15
2022-09-28T04:41:22.247Z,1.35
2022-09-28T04:43:48.966Z,1.17
2022-09-28T04:46:15.599Z,2.10
2022-09-28T04:48:42.159Z,2.60
2022-09-28T04:51:08.674Z,0.80
2022-09-28T04:53:35.509Z,2.28
2022-09-28T04:56:10.930Z,1.77
2022-09-28T04:58:38.059Z,2.35
2022-09-28T05:01:07.875Z,2.88
2022-09-28T05:03:34.444Z,2.50
2022-09-28T05:06:01.599Z,6.47
2022-09-28T05:08:28.413Z,5.95
2022-09-28T05:10:59.950Z,12.68
2022-09-28T05:13:27.903Z,9.25
2022-09-28T05:15:58.186Z,10.90
2022-09-28T05:18:26.209Z,18.10
2022-09-28T05:20:52.642Z,8.25
2022-09-28T05:23:19.190Z,8.40
2022-09-28T05:25:46.034Z,13.73
2022-09-28T05:28:12.604Z,9.85
2022-09-28T05:30:39.391Z,12.57
2022-09-28T05:33:08.701Z,9.07
2022-09-28T05:35:35.209Z,12.65
2022-09-28T05:38:05.542Z,11.00
2022-09-28T05:40:32.609Z,9.30
2022-09-28T05:43:01.538Z,9.27
2022-09-28T05:45:29.783Z,12.13
2022-09-28T05:47:56.704Z,8.10
2022-09-28T05:50:23.722Z,11.50
2022-09-28T05:53:08.384Z,9.98
2022-09-28T05:55:37.020Z,9.13
2022-09-28T05:58:06.466Z,8.48
2022-09-28T06:00:34.045Z,8.90
2022-09-28T06:03:08.912Z,10.55
2022-09-28T06:05:36.985Z,11.30
2022-09-28T06:08:05.314Z,11.02
2022-09-28T06:10:33.147Z,6.65
2022-09-28T06:13:00.320Z,11.18
2022-09-28T06:15:29.065Z,12.90
2022-09-28T06:17:57.419Z,12.77
2022-09-28T06:20:24.980Z,8.63
2022-09-28T06:22:55.328Z,9.45
2022-09-28T06:25:23.529Z,8.68
2022-09-28T06:28:04.088Z,7.60
2022-09-28T06:30:32.613Z,8.60
2022-09-28T06:33:00.810Z,8.13
2022-09-28T06:35:30.371Z,8.60
2022-09-28T06:37:58.648Z,7.22
2022-09-28T06:40:25.877Z,8.07
2022-09-28T06:43:07.018Z,9.07
2022-09-28T06:45:33.521Z,9.40
2022-09-28T06:48:01.102Z,7.07
2022-09-28T06:50:32.280Z,7.72
2022-09-28T06:52:59.754Z,11.18
2022-09-28T06:55:27.415Z,7.50
2022-09-28T06:58:05.497Z,4.03
2022-09-28T07:00:36.391Z,7.88
2022-09-28T07:03:05.037Z,7.97
2022-09-28T07:05:34.901Z,5.53
2022-09-28T07:08:02.034Z,8.13
2022-09-28T07:10:30.002Z,9.95
2022-09-28T07:12:57.868Z,4.45
2022-09-28T07:15:25.312Z,5.68
2022-09-28T07:18:02.386Z,4.15
2022-09-28T07:20:30.404Z,6.57
2022-09-28T07:23:15.471Z,6.13
2022-09-28T07:25:47.737Z,5.35
2022-09-28T07:28:14.508Z,7.45
2022-09-28T07:30:42.254Z,3.67
2022-09-28T07:33:12.586Z,5.90
2022-09-28T07:35:39.409Z,3.65
2022-09-28T07:38:07.446Z,5.15
2022-09-28T07:40:54.425Z,3.40
2022-09-28T07:43:22.047Z,4.43
2022-09-28T07:45:49.914Z,4.85
2022-09-28T07:48:17.136Z,4.10
2022-09-28T07:50:48.658Z,4.72
2022-09-28T07:53:15.146Z,5.45
2022-09-28T07:55:41.587Z,2.47
2022-09-28T07:58:08.053Z,4.50
2022-09-28T08:00:34.716Z,6.78
2022-09-28T08:03:02.332Z,4.70
2022-09-28T08:05:32.160Z,4.05
2022-09-28T08:07:59.761Z,3.85
2022-09-28T08:10:26.752Z,6.38
2022-09-28T08:12:59.240Z,4.10
2022-09-28T08:15:29.624Z,5.15
2022-09-28T08:17:59.093Z,5.65
2022-09-28T08:20:49.438Z,3.00
2022-09-28T08:23:18.497Z,2.72
2022-09-28T08:25:51.954Z,3.50
2022-09-28T08:28:18.649Z,5.53
2022-09-28T08:30:46.289Z,3.08
2022-09-28T08:33:13.803Z,4.18
2022-09-28T08:35:43.378Z,6.10
2022-09-28T08:38:10.944Z,3.75
2022-09-28T08:41:06.247Z,4.47
2022-09-28T08:44:02.795Z,4.07
2022-09-28T08:46:34.221Z,2.97
2022-09-28T08:49:25.700Z,3.17
2022-09-28T08:52:17.230Z,3.45
2022-09-28T08:54:43.621Z,4.95
2022-09-28T08:57:17.964Z,3.40
2022-09-28T08:59:55.788Z,4.90
2022-09-28T09:02:43.863Z,5.03
2022-09-28T09:05:14.891Z,3.15
2022-09-28T09:08:00.097Z,3.80
2022-09-28T09:10:28.701Z,6.93
2022-09-28T09:13:32.601Z,3.90
2022-09-28T09:16:17.494Z,2.55
2022-09-28T09:18:54.387Z,3.30
2022-09-28T09:21:41.762Z,3.25
2022-09-28T09:24:21.504Z,3.13
2022-09-28T09:26:53.395Z,2.13
2022-09-28T09:29:45.643Z,2.60
2022-09-28T09:32:30.723Z,2.05
2022-09-28T09:35:31.688Z,3.10
2022-09-28T09:38:17.422Z,3.47
2022-09-28T09:40:59.147Z,1.50
2022-09-28T09:43:37.574Z,2.75
2022-09-28T09:46:32.337Z,3.30
2022-09-28T09:49:21.094Z,2.60
2022-09-28T09:55:15.128Z,1.90
2022-09-28T09:57:47.189Z,2.53
2022-09-28T10:00:15.789Z,3.30
2022-09-28T10:02:45.054Z,1.92
2022-09-28T10:05:11.518Z,2.22
2022-09-28T10:07:49.997Z,1.38
2022-09-28T10:10:30.471Z,2.60
2022-09-28T10:12:57.199Z,2.58
2022-09-28T10:15:30.011Z,1.25
2022-09-28T10:18:00.190Z,4.50
2022-09-28T10:20:29.285Z,2.28
2022-09-28T10:23:02.179Z,1.83
2022-09-28T10:25:33.608Z,1.27
2022-09-28T10:28:01.368Z,2.47
2022-09-28T10:30:28.477Z,1.13
2022-09-28T10:32:59.323Z,2.15
2022-09-28T10:35:29.078Z,2.08
2022-09-28T10:38:19.593Z,1.92
2022-09-28T10:40:49.083Z,1.33
2022-09-28T10:43:24.495Z,4.63
2022-09-28T10:46:15.087Z,3.85
2022-09-28T10:48:55.926Z,3.47
2022-09-28T10:51:41.139Z,1.95
2022-09-28T10:54:15.509Z,1.52
2022-09-28T10:56:42.131Z,3.08
2022-09-28T10:59:30.129Z,1.80
2022-09-28T11:01:59.875Z,4.65
2022-09-28T11:04:36.382Z,2.00
2022-09-28T11:07:02.923Z,2.15
2022-09-28T11:09:34.108Z,1.77
2022-09-28T11:12:04.952Z,1.25
2022-09-28T11:14:42.749Z,1.15
2022-09-28T11:17:40.562Z,1.60
2022-09-28T11:20:35.554Z,2.80
2022-09-28T11:23:22.456Z,1.40
2022-09-28T11:26:07.028Z,1.55
2022-09-28T11:28:38.103Z,1.65
2022-09-28T11:31:07.949Z,1.35
2022-09-28T11:33:44.910Z,0.98
2022-09-28T11:36:14.450Z,1.85
2022-09-28T11:38:56.195Z,2.10
2022-09-28T11:42:00.444Z,1.52
2022-09-28T11:44:44.957Z,3.08
2022-09-28T11:47:36.173Z,3.38
2022-09-28T11:50:24.104Z,0.93
2022-09-28T11:53:00.114Z,1.20
2022-09-28T11:55:48.004Z,2.30
2022-09-28T11:58:27.499Z,1.48
2022-09-28T12:01:04.078Z,1.05
2022-09-28T12:03:46.623Z,1.42
2022-09-28T12:06:18.009Z,5.50
2022-09-28T12:08:53.487Z,1.38
2022-09-28T12:11:34.101Z,2.85
2022-09-28T12:14:03.871Z,1.85
2022-09-28T12:19:47.566Z,1.25
2022-09-28T12:23:06.836Z,2.28
2022-09-28T12:25:40.460Z,1.98
2022-09-28T12:28:17.187Z,1.10
2022-09-28T12:30:47.199Z,1.98
2022-09-28T12:33:17.668Z,3.53
2022-09-28T12:36:11.957Z,0.93
2022-09-28T12:39:08.522Z,1.75
2022-09-28T12:41:58.523Z,1.17
2022-09-28T12:44:28.073Z,0.90
2022-09-28T12:47:09.826Z,4.03
2022-09-28T12:53:37.373Z,1.25
2022-09-28T12:56:11.747Z,2.05
2022-09-28T12:58:48.583Z,1.55
2022-09-28T13:01:40.123Z,0.85
2022-09-28T13:04:15.355Z,0.82
2022-09-28T13:07:02.977Z,2.53
2022-09-28T13:09:45.216Z,1.02
2022-09-28T13:12:42.192Z,0.70
2022-09-28T13:15:23.659Z,1.85
2022-09-28T13:18:07.765Z,1.00
2022-09-28T13:20:42.660Z,0.70
2022-09-28T13:23:17.337Z,0.85
2022-09-28T13:25:50.968Z,1.20
2022-09-28T13:28:21.327Z,1.73
2022-09-28T13:30:52.545Z,0.80
2022-09-28T13:33:29.081Z,0.93
2022-09-28T13:35:56.762Z,0.82
2022-09-28T13:38:23.404Z,2.20
2022-09-28T13:41:05.168Z,0.77
2022-09-28T13:43:41.387Z,3.22
2022-09-28T13:46:31.052Z,0.98
2022-09-28T13:49:11.266Z,1.63
2022-09-28T13:52:08.560Z,1.80
2022-09-28T13:54:53.839Z,1.63
2022-09-28T13:57:30.910Z,0.80
2022-09-28T14:00:10.631Z,0.90
2022-09-28T14:02:44.268Z,2.60
2022-09-28T14:05:47.052Z,2.47
2022-09-28T14:08:26.182Z,1.17
2022-09-28T14:10:57.798Z,1.25
2022-09-28T14:13:42.543Z,2.08
2022-09-28T14:16:17.872Z,1.50
2022-09-28T14:19:16.295Z,1.10
2022-09-28T14:22:15.183Z,1.30
2022-09-28T14:24:59.740Z,1.23
2022-09-28T14:27:47.410Z,2.20
2022-09-28T14:30:13.835Z,1.63
2022-09-28T14:32:43.175Z,1.10
2022-09-28T14:35:19.084Z,1.30
2022-09-28T14:38:07.287Z,2.78
2022-09-28T14:41:11.421Z,1.02
2022-09-28T14:43:57.677Z,0.82
2022-09-28T14:46:29.127Z,0.93
2022-09-28T14:49:01.780Z,1.58
2022-09-28T14:51:31.060Z,0.95
2022-09-28T14:54:03.426Z,1.48
2022-09-28T14:56:38.146Z,1.80
2022-09-28T14:59:06.663Z,2.30
2022-09-28T15:01:35.522Z,1.25
2022-09-28T15:04:05.041Z,1.52
2022-09-28T15:06:58.193Z,1.08
2022-09-28T15:09:38.451Z,1.92
2022-09-28T15:12:13.160Z,1.63
2022-09-28T15:14:46.187Z,2.17
2022-09-28T15:17:17.625Z,1.73
2022-09-28T15:20:03.387Z,1.50
2022-09-28T15:22:30.391Z,1.20
2022-09-28T15:25:02.409Z,0.98
2022-09-28T15:27:37.282Z,0.98
2022-09-28T15:30:23.132Z,0.70
2022-09-28T15:32:50.743Z,1.25
2022-09-28T15:35:26.290Z,1.30
2022-09-28T15:37:54.889Z,1.15
2022-09-28T15:40:34.876Z,1.05
2022-09-28T15:43:02.524Z,0.82
2022-09-28T15:45:37.914Z,1.55
2022-09-28T15:48:31.055Z,1.40
2022-09-28T15:51:10.226Z,0.95
2022-09-28T15:53:43.137Z,0.85
2022-09-28T15:56:11.752Z,1.48
2022-09-28T15:58:39.484Z,2.35
2022-09-28T16:01:29.334Z,1.77
2022-09-28T16:03:55.930Z,1.02
2022-09-28T16:06:23.122Z,1.67
2022-09-28T16:08:49.646Z,1.10
2022-09-28T16:11:29.080Z,0.80
2022-09-28T16:14:05.994Z,1.40
2022-09-28T16:16:41.127Z,1.70
2022-09-28T16:19:23.478Z,1.52
2022-09-28T16:21:53.126Z,1.52
2022-09-28T16:24:24.374Z,1.75
2022-09-28T16:27:01.034Z,2.55
2022-09-28T16:29:40.180Z,1.48
2022-09-28T16:32:38.599Z,1.40
2022-09-28T16:35:11.175Z,2.20
2022-09-28T16:37:40.518Z,1.77
2022-09-28T16:40:08.756Z,2.40
2022-09-28T16:42:36.390Z,3.88
2022-09-28T16:45:07.857Z,4.03
2022-09-28T16:47:34.649Z,5.18
2022-09-28T16:50:03.660Z,3.60
2022-09-28T16:52:48.455Z,5.15
2022-09-28T16:58:04.878Z,5.05
2022-09-28T17:00:31.870Z,4.78
2022-09-28T17:02:58.570Z,4.65
2022-09-28T17:05:25.554Z,6.75
2022-09-28T17:08:01.717Z,5.85
2022-09-28T17:11:09.756Z,9.68
2022-09-28T17:13:33.912Z,7.25
2022-09-28T17:16:02.748Z,6.72
2022-09-28T17:18:31.866Z,4.90
2022-09-28T17:21:03.138Z,6.03
2022-09-28T17:23:30.146Z,8.32
2022-09-28T17:25:57.198Z,9.35
2022-09-28T17:28:27.374Z,7.03
2022-09-28T17:30:54.636Z,9.48
2022-09-28T17:33:21.413Z,11.13
2022-09-28T17:35:48.440Z,10.32
2022-09-28T17:38:16.040Z,10.57
2022-09-28T17:40:44.871Z,6.50
2022-09-28T17:43:11.561Z,10.43
2022-09-28T17:45:39.492Z,10.13
2022-09-28T17:48:16.329Z,11.80
2022-09-28T17:50:46.575Z,10.35
2022-09-28T17:53:14.157Z,13.07
2022-09-28T17:55:42.981Z,9.40
2022-09-28T17:58:18.374Z,12.20
2022-09-28T18:00:49.262Z,13.70
2022-09-28T18:03:20.692Z,14.95
2022-09-28T18:05:49.848Z,13.07
2022-09-28T18:08:21.110Z,13.38
2022-09-28T18:10:47.884Z,14.50
2022-09-28T18:13:15.174Z,13.35
2022-09-28T18:15:42.344Z,13.18
2022-09-28T18:18:09.833Z,16.00
2022-09-28T18:20:37.195Z,12.43
2022-09-28T18:23:04.032Z,15.25
2022-09-28T18:25:30.990Z,12.35
2022-09-28T18:27:59.913Z,14.85
2022-09-28T18:30:27.950Z,13.25
2022-09-28T18:32:54.697Z,16.40
2022-09-28T18:35:23.276Z,16.17
2022-09-28T18:37:50.331Z,14.38
2022-09-28T18:40:17.121Z,14.07
2022-09-28T18:42:43.761Z,15.05
2022-09-28T18:45:11.323Z,16.42
2022-09-28T18:47:39.199Z,14.18
2022-09-28T18:50:06.170Z,19.13
2022-09-28T18:52:35.885Z,17.17
2022-09-28T18:55:02.395Z,18.13
2022-09-28T18:57:28.906Z,12.55
2022-09-28T18:59:55.468Z,16.77
2022-09-28T19:02:22.000Z,13.27
2022-09-28T19:04:48.578Z,13.77
2022-09-28T19:07:15.155Z,19.30
2022-09-28T19:09:44.008Z,18.77
2022-09-28T19:12:14.493Z,15.77
2022-09-28T19:14:41.011Z,17.58
2022-09-28T19:17:07.514Z,15.30
2022-09-28T19:19:34.093Z,17.42
2022-09-28T19:22:00.681Z,19.15
2022-09-28T19:24:27.375Z,17.20
2022-09-28T19:26:53.888Z,15.02
2022-09-28T19:29:20.727Z,17.58
2022-09-28T19:31:47.266Z,15.77
2022-09-28T19:34:14.416Z,17.58
2022-09-28T19:36:41.442Z,14.77
2022-09-28T19:39:08.007Z,19.95
2022-09-28T19:41:43.668Z,14.52
2022-09-28T19:44:10.594Z,14.88
2022-09-28T19:46:40.556Z,14.30
2022-09-28T19:49:10.575Z,14.27
2022-09-28T19:51:46.948Z,16.55
2022-09-28T19:54:32.056Z,17.08
2022-09-28T19:57:07.721Z,18.77
2022-09-28T19:59:35.681Z,14.18
2022-09-28T20:02:03.175Z,15.65
2022-09-28T20:04:29.990Z,15.52
2022-09-28T20:06:56.588Z,14.38
2022-09-28T20:09:23.090Z,14.13
2022-09-28T20:11:51.826Z,15.80
2022-09-28T20:14:23.421Z,16.88
2022-09-28T20:16:52.503Z,13.25
2022-09-28T20:19:21.744Z,15.85
2022-09-28T20:21:48.666Z,14.50
2022-09-28T20:24:17.188Z,14.82
2022-09-28T20:26:45.841Z,15.40
2022-09-28T20:29:12.922Z,14.85
2022-09-28T20:31:39.845Z,15.77
2022-09-28T20:34:06.984Z,14.45
2022-09-28T20:36:34.081Z,13.10
2022-09-28T20:39:01.944Z,12.60
2022-09-28T20:41:34.726Z,14.15
2022-09-28T20:44:05.417Z,17.48
2022-09-28T20:46:33.154Z,13.23
2022-09-28T20:48:59.961Z,14.52
2022-09-28T20:51:26.728Z,13.45
2022-09-28T20:53:55.032Z,14.38
2022-09-28T20:56:30.533Z,13.98
2022-09-28T20:58:57.377Z,13.48
2022-09-28T21:01:29.959Z,11.55
2022-09-28T21:04:01.682Z,14.88
2022-09-28T21:06:30.949Z,12.75
2022-09-28T21:08:57.571Z,15.77
2022-09-28T21:11:26.226Z,13.93
2022-09-28T21:13:55.105Z,13.40
2022-09-28T21:16:21.744Z,14.43
2022-09-28T21:18:48.570Z,13.25
2022-09-28T21:21:17.348Z,12.88
2022-09-28T21:23:47.026Z,12.85
2022-09-28T21:26:15.778Z,13.10
2022-09-28T21:28:42.498Z,14.82
2022-09-28T21:31:11.267Z,12.23
2022-09-28T21:33:38.194Z,13.23
2022-09-28T21:36:06.871Z,13.13
2022-09-28T21:38:34.291Z,12.25
2022-09-28T21:41:01.298Z,14.02
2022-09-28T21:43:29.421Z,14.85
2022-09-28T21:45:56.767Z,15.75
2022-09-28T21:48:24.588Z,12.48
2022-09-28T21:50:58.933Z,14.73
2022-09-28T21:53:26.850Z,11.77
2022-09-28T21:55:53.697Z,11.32
2022-09-28T21:58:25.849Z,13.27
2022-09-28T22:01:14.803Z,13.55
2022-09-28T22:03:44.019Z,13.10
2022-09-28T22:06:10.550Z,12.15
2022-09-28T22:08:37.507Z,10.35
2022-09-28T22:11:13.152Z,12.10
2022-09-28T22:13:51.066Z,14.57
2022-09-28T22:16:20.273Z,11.30
2022-09-28T22:18:47.473Z,12.57
2022-09-28T22:21:17.324Z,11.43
2022-09-28T22:23:44.419Z,10.50
2022-09-28T22:26:17.820Z,12.63
2022-09-28T22:28:47.102Z,11.70
2022-09-28T22:31:14.926Z,11.15
2022-09-28T22:33:41.688Z,13.95
2022-09-28T22:36:08.702Z,11.45
2022-09-28T22:38:35.489Z,13.48
2022-09-28T22:41:05.146Z,10.98
2022-09-28T22:43:31.977Z,11.60
2022-09-28T22:46:11.605Z,9.63
2022-09-28T22:48:38.502Z,9.95
2022-09-28T22:51:06.553Z,9.98
2022-09-28T22:53:33.869Z,9.43
2022-09-28T22:56:01.463Z,12.88
2022-09-28T22:58:28.009Z,10.77
2022-09-28T23:00:56.379Z,11.07
2022-09-28T23:03:23.374Z,11.90
2022-09-28T23:05:56.444Z,11.10
2022-09-28T23:08:23.776Z,12.52
2022-09-28T23:10:51.014Z,11.98
2022-09-28T23:13:18.215Z,10.88
2022-09-28T23:15:56.866Z,10.02
2022-09-28T23:18:24.072Z,12.88
2022-09-28T23:20:59.245Z,11.05
2022-09-28T23:23:26.212Z,9.90
2022-09-28T23:25:53.232Z,10.90
2022-09-28T23:28:22.176Z,12.70
2022-09-28T23:30:49.428Z,12.15
2022-09-28T23:33:18.198Z,8.88
2022-09-28T23:35:44.864Z,10.80
2022-09-28T23:38:17.886Z,8.88
2022-09-28T23:40:47.505Z,9.32
2022-09-28T23:43:14.767Z,9.73
2022-09-28T23:45:44.224Z,11.73
2022-09-28T23:48:10.776Z,10.95
2022-09-28T23:50:37.205Z,10.90
2022-09-28T23:53:03.708Z,9.38
2022-09-28T23:55:30.199Z,9.80
2022-09-28T23:57:58.158Z,12.38
